sensor_id;sensor_type;location;lat;lon;timestamp;pressure;altitude;pressure_sealevel;temperature;humidity
68226;BME280;55045;49.410;11.030;2023-04-29T00:01:56;97736.81;;;10.20;100.00
68226;BME280;55045;49.410;11.030;2023-04-29T00:05:00;97729.63;;;10.09;100.00
68226;BME280;55045;49.410;11.030;2023-04-29T00:08:07;97732.13;;;10.11;100.00
68226;BME280;55045;49.410;11.030;2023-04-29T00:11:11;97729.97;;;10.19;100.00
68226;BME280;55045;49.410;11.030;2023-04-29T00:14:14;97728.19;;;10.04;100.00
68226;BME280;55045;49.410;11.030;2023-04-29T00:17:17;97724.59;;;10.06;100.00
68226;BME280;55045;49.410;11.030;2023-04-29T00:20:21;97723.66;;;9.92;100.00
68226;BME280;55045;49.410;11.030;2023-04-29T00:23:25;97725.41;;;9.91;100.00
68226;BME280;55045;49.410;11.030;2023-04-29T00:26:28;97733.13;;;10.08;100.00
68226;BME280;55045;49.410;11.030;2023-04-29T00:29:32;97726.72;;;9.82;100.00
68226;BME280;55045;49.410;11.030;2023-04-29T00:32:36;97732.19;;;9.76;100.00
68226;BME280;55045;49.410;11.030;2023-04-29T00:35:39;97734.78;;;9.76;100.00
68226;BME280;55045;49.410;11.030;2023-04-29T00:38:43;97728.50;;;9.65;100.00
68226;BME280;55045;49.410;11.030;2023-04-29T00:41:46;97734.91;;;9.91;100.00
68226;BME280;55045;49.410;11.030;2023-04-29T00:44:50;97731.66;;;9.70;100.00
68226;BME280;55045;49.410;11.030;2023-04-29T00:47:53;97733.59;;;9.66;100.00
68226;BME280;55045;49.410;11.030;2023-04-29T00:50:57;97735.50;;;9.63;100.00
68226;BME280;55045;49.410;11.030;2023-04-29T00:54:03;97726.91;;;9.62;100.00
68226;BME280;55045;49.410;11.030;2023-04-29T00:57:07;97725.34;;;9.75;100.00
68226;BME280;55045;49.410;11.030;2023-04-29T01:00:11;97728.09;;;9.55;100.00
68226;BME280;55045;49.410;11.030;2023-04-29T01:03:20;97726.72;;;9.48;100.00
68226;BME280;55045;49.410;11.030;2023-04-29T01:06:29;97737.00;;;9.49;100.00
68226;BME280;55045;49.410;11.030;2023-04-29T01:09:48;97734.22;;;9.54;100.00
68226;BME280;55045;49.410;11.030;2023-04-29T01:12:57;97740.91;;;9.41;100.00
68226;BME280;55045;49.410;11.030;2023-04-29T01:16:09;97730.94;;;9.50;100.00
68226;BME280;55045;49.410;11.030;2023-04-29T01:19:15;97736.16;;;9.49;100.00
68226;BME280;55045;49.410;11.030;2023-04-29T01:22:25;97732.75;;;9.31;100.00
68226;BME280;55045;49.410;11.030;2023-04-29T01:25:29;97728.66;;;9.62;100.00
68226;BME280;55045;49.410;11.030;2023-04-29T01:29:08;97719.38;;;9.40;100.00
68226;BME280;55045;49.410;11.030;2023-04-29T01:32:27;97721.13;;;9.22;100.00
68226;BME280;55045;49.410;11.030;2023-04-29T01:35:43;97714.78;;;9.28;100.00
68226;BME280;55045;49.410;11.030;2023-04-29T01:39:05;97728.50;;;9.30;100.00
68226;BME280;55045;49.410;11.030;2023-04-29T01:42:18;97726.88;;;9.28;100.00
68226;BME280;55045;49.410;11.030;2023-04-29T01:45:25;97722.69;;;9.25;100.00
68226;BME280;55045;49.410;11.030;2023-04-29T01:48:29;97728.81;;;9.41;100.00
68226;BME280;55045;49.410;11.030;2023-04-29T01:51:33;97731.34;;;9.93;100.00
68226;BME280;55045;49.410;11.030;2023-04-29T01:54:36;97729.56;;;9.43;100.00
68226;BME280;55045;49.410;11.030;2023-04-29T01:57:41;97722.53;;;9.28;100.00
68226;BME280;55045;49.410;11.030;2023-04-29T02:01:03;97727.94;;;9.75;100.00
68226;BME280;55045;49.410;11.030;2023-04-29T02:04:09;97732.69;;;9.33;100.00
68226;BME280;55045;49.410;11.030;2023-04-29T02:07:13;97731.22;;;9.27;100.00
68226;BME280;55045;49.410;11.030;2023-04-29T02:10:17;97739.06;;;9.60;100.00
68226;BME280;55045;49.410;11.030;2023-04-29T02:13:24;97736.41;;;9.62;100.00
68226;BME280;55045;49.410;11.030;2023-04-29T02:16:28;97735.72;;;9.58;100.00
68226;BME280;55045;49.410;11.030;2023-04-29T02:19:37;97732.75;;;9.48;100.00
68226;BME280;55045;49.410;11.030;2023-04-29T02:22:41;97735.72;;;9.58;100.00
68226;BME280;55045;49.410;11.030;2023-04-29T02:25:44;97738.94;;;9.63;100.00
68226;BME280;55045;49.410;11.030;2023-04-29T02:28:48;97723.84;;;9.37;100.00
68226;BME280;55045;49.410;11.030;2023-04-29T02:31:55;97733.88;;;9.77;100.00
68226;BME280;55045;49.410;11.030;2023-04-29T02:34:58;97735.03;;;9.37;100.00
68226;BME280;55045;49.410;11.030;2023-04-29T02:38:02;97732.38;;;9.21;100.00
68226;BME280;55045;49.410;11.030;2023-04-29T02:41:05;97738.47;;;9.20;100.00
68226;BME280;55045;49.410;11.030;2023-04-29T02:44:10;97739.81;;;9.28;100.00
68226;BME280;55045;49.410;11.030;2023-04-29T02:47:13;97735.66;;;9.42;100.00
68226;BME280;55045;49.410;11.030;2023-04-29T02:50:16;97740.44;;;9.50;100.00
68226;BME280;55045;49.410;11.030;2023-04-29T02:53:20;97739.47;;;9.35;100.00
68226;BME280;55045;49.410;11.030;2023-04-29T02:56:24;97735.41;;;9.30;100.00
68226;BME280;55045;49.410;11.030;2023-04-29T02:59:29;97731.59;;;9.37;100.00
68226;BME280;55045;49.410;11.030;2023-04-29T03:02:32;97733.97;;;10.09;100.00
68226;BME280;55045;49.410;11.030;2023-04-29T03:05:35;97726.34;;;9.38;100.00
68226;BME280;55045;49.410;11.030;2023-04-29T03:08:38;97736.97;;;9.51;100.00
68226;BME280;55045;49.410;11.030;2023-04-29T03:11:42;97739.22;;;9.40;100.00
68226;BME280;55045;49.410;11.030;2023-04-29T03:14:46;97742.59;;;9.42;100.00
68226;BME280;55045;49.410;11.030;2023-04-29T03:17:50;97749.81;;;9.52;100.00
68226;BME280;55045;49.410;11.030;2023-04-29T03:20:53;97747.19;;;9.70;100.00
68226;BME280;55045;49.410;11.030;2023-04-29T03:23:56;97732.44;;;9.55;100.00
68226;BME280;55045;49.410;11.030;2023-04-29T03:27:06;97731.06;;;9.47;100.00
68226;BME280;55045;49.410;11.030;2023-04-29T03:30:11;97734.75;;;9.43;100.00
68226;BME280;55045;49.410;11.030;2023-04-29T03:34:46;97733.66;;;9.47;100.00
68226;BME280;55045;49.410;11.030;2023-04-29T03:38:17;97735.41;;;9.47;100.00
68226;BME280;55045;49.410;11.030;2023-04-29T03:41:21;97734.91;;;9.40;100.00
68226;BME280;55045;49.410;11.030;2023-04-29T03:44:25;97732.31;;;9.40;100.00
68226;BME280;55045;49.410;11.030;2023-04-29T03:47:30;97741.66;;;9.43;100.00
68226;BME280;55045;49.410;11.030;2023-04-29T03:50:36;97734.34;;;9.34;100.00
68226;BME280;55045;49.410;11.030;2023-04-29T03:53:39;97741.13;;;9.36;100.00
68226;BME280;55045;49.410;11.030;2023-04-29T03:56:42;97745.44;;;9.70;100.00
68226;BME280;55045;49.410;11.030;2023-04-29T03:59:47;97746.06;;;9.75;100.00
68226;BME280;55045;49.410;11.030;2023-04-29T04:02:52;97747.69;;;9.43;100.00
68226;BME280;55045;49.410;11.030;2023-04-29T04:05:57;97740.06;;;9.75;100.00
68226;BME280;55045;49.410;11.030;2023-04-29T04:09:00;97754.00;;;9.55;100.00
68226;BME280;55045;49.410;11.030;2023-04-29T04:12:05;97760.31;;;9.49;100.00
68226;BME280;55045;49.410;11.030;2023-04-29T04:15:09;97755.13;;;9.49;100.00
68226;BME280;55045;49.410;11.030;2023-04-29T04:18:12;97760.47;;;9.46;100.00
68226;BME280;55045;49.410;11.030;2023-04-29T04:21:17;97771.38;;;9.53;100.00
68226;BME280;55045;49.410;11.030;2023-04-29T04:24:28;97772.97;;;9.73;100.00
68226;BME280;55045;49.410;11.030;2023-04-29T04:27:31;97772.50;;;9.47;100.00
68226;BME280;55045;49.410;11.030;2023-04-29T04:30:38;97782.00;;;9.47;100.00
68226;BME280;55045;49.410;11.030;2023-04-29T04:33:42;97782.63;;;9.52;100.00
68226;BME280;55045;49.410;11.030;2023-04-29T04:36:47;97784.06;;;9.58;100.00
68226;BME280;55045;49.410;11.030;2023-04-29T04:39:50;97785.06;;;9.55;100.00
68226;BME280;55045;49.410;11.030;2023-04-29T04:42:54;97790.91;;;9.59;100.00
68226;BME280;55045;49.410;11.030;2023-04-29T04:45:58;97753.78;;;9.42;100.00
68226;BME280;55045;49.410;11.030;2023-04-29T04:49:02;97793.75;;;9.71;100.00
68226;BME280;55045;49.410;11.030;2023-04-29T04:52:08;97791.16;;;9.71;100.00
68226;BME280;55045;49.410;11.030;2023-04-29T04:55:12;97793.59;;;9.92;100.00
68226;BME280;55045;49.410;11.030;2023-04-29T04:58:19;97794.34;;;9.76;100.00
68226;BME280;55045;49.410;11.030;2023-04-29T05:01:23;97801.28;;;9.93;100.00
68226;BME280;55045;49.410;11.030;2023-04-29T05:04:27;97800.66;;;10.05;100.00
68226;BME280;55045;49.410;11.030;2023-04-29T05:07:31;97800.66;;;10.05;100.00
68226;BME280;55045;49.410;11.030;2023-04-29T05:10:38;97801.25;;;10.10;100.00
68226;BME280;55045;49.410;11.030;2023-04-29T05:13:43;97811.88;;;10.56;100.00
68226;BME280;55045;49.410;11.030;2023-04-29T05:16:46;97808.47;;;10.38;100.00
68226;BME280;55045;49.410;11.030;2023-04-29T05:19:50;97805.47;;;10.46;100.00
68226;BME280;55045;49.410;11.030;2023-04-29T05:22:55;97803.38;;;10.37;100.00
68226;BME280;55045;49.410;11.030;2023-04-29T05:25:59;97809.34;;;10.71;100.00
68226;BME280;55045;49.410;11.030;2023-04-29T05:29:02;97803.91;;;10.59;100.00
68226;BME280;55045;49.410;11.030;2023-04-29T05:32:13;97810.28;;;10.70;100.00
68226;BME280;55045;49.410;11.030;2023-04-29T05:35:16;97741.59;;;10.45;100.00
68226;BME280;55045;49.410;11.030;2023-04-29T05:38:21;97807.69;;;10.70;100.00
68226;BME280;55045;49.410;11.030;2023-04-29T05:41:36;97816.59;;;10.97;100.00
68226;BME280;55045;49.410;11.030;2023-04-29T05:45:03;97816.06;;;10.90;100.00
68226;BME280;55045;49.410;11.030;2023-04-29T05:48:07;97822.03;;;11.08;100.00
68226;BME280;55045;49.410;11.030;2023-04-29T05:51:11;97820.59;;;11.18;100.00
68226;BME280;55045;49.410;11.030;2023-04-29T05:54:16;97824.63;;;11.08;100.00
68226;BME280;55045;49.410;11.030;2023-04-29T05:57:20;97824.63;;;11.08;100.00
68226;BME280;55045;49.410;11.030;2023-04-29T06:00:23;97827.44;;;11.19;100.00
68226;BME280;55045;49.410;11.030;2023-04-29T06:03:32;97803.34;;;11.17;100.00
68226;BME280;55045;49.410;11.030;2023-04-29T06:06:57;97832.59;;;11.51;100.00
68226;BME280;55045;49.410;11.030;2023-04-29T06:10:21;97828.09;;;11.54;100.00
68226;BME280;55045;49.410;11.030;2023-04-29T06:13:25;97823.13;;;11.66;100.00
68226;BME280;55045;49.410;11.030;2023-04-29T06:16:28;97828.38;;;11.64;100.00
68226;BME280;55045;49.410;11.030;2023-04-29T06:19:32;97826.38;;;11.69;100.00
68226;BME280;55045;49.410;11.030;2023-04-29T06:22:35;97833.06;;;11.89;100.00
68226;BME280;55045;49.410;11.030;2023-04-29T06:25:39;97835.94;;;11.69;100.00
68226;BME280;55045;49.410;11.030;2023-04-29T06:28:44;97839.13;;;11.58;100.00
68226;BME280;55045;49.410;11.030;2023-04-29T06:31:47;97843.06;;;11.65;100.00
68226;BME280;55045;49.410;11.030;2023-04-29T06:34:51;97844.16;;;11.61;100.00
68226;BME280;55045;49.410;11.030;2023-04-29T06:38:12;97844.34;;;11.58;100.00
68226;BME280;55045;49.410;11.030;2023-04-29T06:41:51;97859.25;;;11.54;100.00
68226;BME280;55045;49.410;11.030;2023-04-29T06:45:27;97860.44;;;11.49;100.00
68226;BME280;55045;49.410;11.030;2023-04-29T06:48:40;97871.28;;;11.71;100.00
68226;BME280;55045;49.410;11.030;2023-04-29T06:51:43;97857.03;;;11.63;100.00
68226;BME280;55045;49.410;11.030;2023-04-29T06:54:47;97860.31;;;11.82;100.00
68226;BME280;55045;49.410;11.030;2023-04-29T06:57:56;97856.13;;;11.79;100.00
68226;BME280;55045;49.410;11.030;2023-04-29T07:00:59;97856.69;;;11.85;100.00
68226;BME280;55045;49.410;11.030;2023-04-29T07:04:04;97864.00;;;12.08;100.00
68226;BME280;55045;49.410;11.030;2023-04-29T07:07:08;97851.19;;;12.05;100.00
68226;BME280;55045;49.410;11.030;2023-04-29T07:10:11;97870.91;;;11.93;100.00
68226;BME280;55045;49.410;11.030;2023-04-29T07:13:16;97864.72;;;11.96;100.00
68226;BME280;55045;49.410;11.030;2023-04-29T07:16:19;97864.16;;;11.91;100.00
68226;BME280;55045;49.410;11.030;2023-04-29T07:19:23;97866.19;;;11.86;100.00
68226;BME280;55045;49.410;11.030;2023-04-29T07:22:27;97874.13;;;11.82;100.00
68226;BME280;55045;49.410;11.030;2023-04-29T07:25:30;97872.47;;;11.81;100.00
68226;BME280;55045;49.410;11.030;2023-04-29T07:28:35;97882.50;;;11.72;100.00
68226;BME280;55045;49.410;11.030;2023-04-29T07:31:39;97885.19;;;11.70;100.00
68226;BME280;55045;49.410;11.030;2023-04-29T07:34:42;97892.44;;;11.65;100.00
68226;BME280;55045;49.410;11.030;2023-04-29T07:37:45;97890.56;;;11.67;100.00
68226;BME280;55045;49.410;11.030;2023-04-29T07:40:49;97890.56;;;11.67;100.00
68226;BME280;55045;49.410;11.030;2023-04-29T07:43:54;97891.91;;;11.90;100.00
68226;BME280;55045;49.410;11.030;2023-04-29T07:46:57;97895.94;;;12.10;100.00
68226;BME280;55045;49.410;11.030;2023-04-29T07:50:01;97886.28;;;12.12;100.00
68226;BME280;55045;49.410;11.030;2023-04-29T07:53:06;97888.41;;;12.05;100.00
68226;BME280;55045;49.410;11.030;2023-04-29T07:56:10;97880.41;;;12.38;100.00
68226;BME280;55045;49.410;11.030;2023-04-29T07:59:15;97889.69;;;12.28;100.00
68226;BME280;55045;49.410;11.030;2023-04-29T08:02:19;97888.88;;;12.42;100.00
68226;BME280;55045;49.410;11.030;2023-04-29T08:05:24;97898.09;;;12.48;100.00
68226;BME280;55045;49.410;11.030;2023-04-29T08:08:28;97900.69;;;12.62;100.00
68226;BME280;55045;49.410;11.030;2023-04-29T08:11:32;97901.13;;;12.97;100.00
68226;BME280;55045;49.410;11.030;2023-04-29T08:14:37;97900.84;;;13.16;100.00
68226;BME280;55045;49.410;11.030;2023-04-29T08:17:40;97892.97;;;13.03;100.00
68226;BME280;55045;49.410;11.030;2023-04-29T08:20:43;97896.59;;;13.01;100.00
68226;BME280;55045;49.410;11.030;2023-04-29T08:23:46;97900.13;;;13.14;100.00
68226;BME280;55045;49.410;11.030;2023-04-29T08:26:49;97896.97;;;13.09;100.00
68226;BME280;55045;49.410;11.030;2023-04-29T08:29:55;97909.06;;;12.95;100.00
68226;BME280;55045;49.410;11.030;2023-04-29T08:32:58;97909.44;;;12.89;100.00
68226;BME280;55045;49.410;11.030;2023-04-29T08:36:02;97920.75;;;12.60;100.00
68226;BME280;55045;49.410;11.030;2023-04-29T08:39:05;97920.56;;;12.49;100.00
68226;BME280;55045;49.410;11.030;2023-04-29T08:42:09;97932.34;;;12.54;100.00
68226;BME280;55045;49.410;11.030;2023-04-29T08:45:14;97927.38;;;12.35;100.00
68226;BME280;55045;49.410;11.030;2023-04-29T08:48:18;97937.78;;;12.35;100.00
68226;BME280;55045;49.410;11.030;2023-04-29T08:51:21;97947.13;;;12.24;100.00
68226;BME280;55045;49.410;11.030;2023-04-29T08:54:25;97949.34;;;12.16;100.00
68226;BME280;55045;49.410;11.030;2023-04-29T08:57:29;97958.22;;;12.27;100.00
68226;BME280;55045;49.410;11.030;2023-04-29T09:00:35;97959.81;;;12.44;100.00
68226;BME280;55045;49.410;11.030;2023-04-29T09:03:42;97905.06;;;12.47;100.00
68226;BME280;55045;49.410;11.030;2023-04-29T09:06:47;97903.00;;;12.66;100.00
68226;BME280;55045;49.410;11.030;2023-04-29T09:09:51;97945.31;;;13.27;100.00
68226;BME280;55045;49.410;11.030;2023-04-29T09:12:56;97936.25;;;13.47;100.00
68226;BME280;55045;49.410;11.030;2023-04-29T09:16:00;97940.53;;;13.62;100.00
68226;BME280;55045;49.410;11.030;2023-04-29T09:19:04;97939.69;;;13.62;100.00
68226;BME280;55045;49.410;11.030;2023-04-29T09:22:07;97935.94;;;13.66;100.00
68226;BME280;55045;49.410;11.030;2023-04-29T09:25:11;97936.22;;;13.34;100.00
68226;BME280;55045;49.410;11.030;2023-04-29T09:28:14;97932.81;;;13.61;100.00
68226;BME280;55045;49.410;11.030;2023-04-29T09:34:48;97931.75;;;13.22;100.00
68226;BME280;55045;49.410;11.030;2023-04-29T09:37:51;97944.59;;;13.39;100.00
68226;BME280;55045;49.410;11.030;2023-04-29T09:40:55;97937.59;;;13.11;100.00
68226;BME280;55045;49.410;11.030;2023-04-29T09:44:04;97939.38;;;13.39;100.00
68226;BME280;55045;49.410;11.030;2023-04-29T09:47:08;97938.91;;;13.33;100.00
68226;BME280;55045;49.410;11.030;2023-04-29T09:50:14;97951.09;;;13.32;100.00
68226;BME280;55045;49.410;11.030;2023-04-29T09:53:27;97946.94;;;13.57;100.00
68226;BME280;55045;49.410;11.030;2023-04-29T09:56:47;97948.25;;;13.64;100.00
68226;BME280;55045;49.410;11.030;2023-04-29T09:59:51;97940.28;;;14.06;100.00
68226;BME280;55045;49.410;11.030;2023-04-29T10:02:57;97939.94;;;14.38;100.00
68226;BME280;55045;49.410;11.030;2023-04-29T10:06:04;97931.53;;;14.60;100.00
68226;BME280;55045;49.410;11.030;2023-04-29T10:09:09;97949.28;;;14.55;100.00
68226;BME280;55045;49.410;11.030;2023-04-29T10:12:18;97941.34;;;14.56;100.00
68226;BME280;55045;49.410;11.030;2023-04-29T10:15:26;97937.81;;;14.18;100.00
68226;BME280;55045;49.410;11.030;2023-04-29T10:18:35;97943.13;;;14.16;100.00
68226;BME280;55045;49.410;11.030;2023-04-29T10:21:40;97941.75;;;14.10;100.00
68226;BME280;55045;49.410;11.030;2023-04-29T10:24:44;97940.53;;;13.89;100.00
68226;BME280;55045;49.410;11.030;2023-04-29T10:27:49;97936.66;;;13.82;100.00
68226;BME280;55045;49.410;11.030;2023-04-29T10:30:54;97957.50;;;13.82;100.00
68226;BME280;55045;49.410;11.030;2023-04-29T10:33:59;97956.09;;;13.91;100.00
68226;BME280;55045;49.410;11.030;2023-04-29T10:37:04;97910.75;;;13.79;100.00
68226;BME280;55045;49.410;11.030;2023-04-29T10:40:11;97950.94;;;14.16;100.00
68226;BME280;55045;49.410;11.030;2023-04-29T10:43:21;97948.34;;;13.89;100.00
68226;BME280;55045;49.410;11.030;2023-04-29T10:46:25;97924.31;;;13.71;100.00
68226;BME280;55045;49.410;11.030;2023-04-29T10:49:33;97945.34;;;13.95;100.00
68226;BME280;55045;49.410;11.030;2023-04-29T10:52:51;97951.53;;;14.07;100.00
68226;BME280;55045;49.410;11.030;2023-04-29T10:55:58;97948.94;;;14.07;100.00
68226;BME280;55045;49.410;11.030;2023-04-29T10:59:02;97912.84;;;13.74;100.00
68226;BME280;55045;49.410;11.030;2023-04-29T11:02:06;97952.97;;;13.98;100.00
68226;BME280;55045;49.410;11.030;2023-04-29T11:05:11;97953.66;;;14.15;100.00
68226;BME280;55045;49.410;11.030;2023-04-29T11:08:19;97947.50;;;14.16;100.00
68226;BME280;55045;49.410;11.030;2023-04-29T11:11:25;97955.13;;;13.65;100.00
68226;BME280;55045;49.410;11.030;2023-04-29T11:14:31;97949.09;;;13.64;100.00
68226;BME280;55045;49.410;11.030;2023-04-29T11:17:35;97957.28;;;13.58;100.00
68226;BME280;55045;49.410;11.030;2023-04-29T11:24:15;97962.41;;;13.60;100.00
68226;BME280;55045;49.410;11.030;2023-04-29T11:27:19;97964.34;;;13.70;100.00
68226;BME280;55045;49.410;11.030;2023-04-29T11:30:24;97970.75;;;13.65;100.00
68226;BME280;55045;49.410;11.030;2023-04-29T11:33:31;97967.28;;;13.78;100.00
68226;BME280;55045;49.410;11.030;2023-04-29T11:36:34;97974.16;;;13.52;100.00
68226;BME280;55045;49.410;11.030;2023-04-29T11:39:39;97976.78;;;13.79;100.00
68226;BME280;55045;49.410;11.030;2023-04-29T11:42:44;97974.56;;;13.73;100.00
68226;BME280;55045;49.410;11.030;2023-04-29T11:45:49;97983.41;;;13.98;100.00
68226;BME280;55045;49.410;11.030;2023-04-29T11:48:52;97987.88;;;13.69;100.00
68226;BME280;55045;49.410;11.030;2023-04-29T11:51:55;97985.66;;;13.48;100.00
68226;BME280;55045;49.410;11.030;2023-04-29T11:55:01;97985.13;;;13.43;100.00
68226;BME280;55045;49.410;11.030;2023-04-29T11:58:04;97998.53;;;13.51;100.00
68226;BME280;55045;49.410;11.030;2023-04-29T12:01:07;97984.09;;;13.87;100.00
68226;BME280;55045;49.410;11.030;2023-04-29T12:04:11;97982.53;;;13.84;100.00
68226;BME280;55045;49.410;11.030;2023-04-29T12:07:15;97986.75;;;13.73;100.00
68226;BME280;55045;49.410;11.030;2023-04-29T12:10:20;97986.91;;;13.84;100.00
68226;BME280;55045;49.410;11.030;2023-04-29T12:13:26;97992.13;;;13.84;100.00
68226;BME280;55045;49.410;11.030;2023-04-29T12:16:29;97991.03;;;13.74;100.00
68226;BME280;55045;49.410;11.030;2023-04-29T12:19:33;97992.19;;;13.70;100.00
68226;BME280;55045;49.410;11.030;2023-04-29T12:22:38;97990.72;;;13.93;100.00
68226;BME280;55045;49.410;11.030;2023-04-29T12:25:47;97988.72;;;13.69;100.00
68226;BME280;55045;49.410;11.030;2023-04-29T12:28:53;97995.66;;;13.42;100.00
68226;BME280;55045;49.410;11.030;2023-04-29T12:31:56;97993.59;;;13.47;100.00
68226;BME280;55045;49.410;11.030;2023-04-29T12:34:59;97993.03;;;13.27;100.00
68226;BME280;55045;49.410;11.030;2023-04-29T12:38:02;97996.50;;;13.42;100.00
68226;BME280;55045;49.410;11.030;2023-04-29T12:41:07;97999.25;;;13.53;100.00
68226;BME280;55045;49.410;11.030;2023-04-29T12:44:11;97992.31;;;13.40;100.00
68226;BME280;55045;49.410;11.030;2023-04-29T12:47:15;98011.09;;;13.45;100.00
68226;BME280;55045;49.410;11.030;2023-04-29T12:50:18;98010.72;;;13.37;100.00
68226;BME280;55045;49.410;11.030;2023-04-29T12:53:22;98004.22;;;13.30;100.00
68226;BME280;55045;49.410;11.030;2023-04-29T12:56:26;98012.50;;;13.22;100.00
68226;BME280;55045;49.410;11.030;2023-04-29T12:59:29;98015.13;;;13.06;100.00
68226;BME280;55045;49.410;11.030;2023-04-29T13:02:33;98019.75;;;13.31;100.00
68226;BME280;55045;49.410;11.030;2023-04-29T13:05:37;98010.44;;;13.27;100.00
68226;BME280;55045;49.410;11.030;2023-04-29T13:08:41;98010.00;;;13.20;100.00
68226;BME280;55045;49.410;11.030;2023-04-29T13:11:46;98010.38;;;13.29;100.00
68226;BME280;55045;49.410;11.030;2023-04-29T13:14:49;98013.13;;;13.54;100.00
68226;BME280;55045;49.410;11.030;2023-04-29T13:17:53;98006.84;;;13.85;100.00
68226;BME280;55045;49.410;11.030;2023-04-29T13:20:59;98007.81;;;13.55;100.00
68226;BME280;55045;49.410;11.030;2023-04-29T13:24:04;98009.13;;;13.34;100.00
68226;BME280;55045;49.410;11.030;2023-04-29T13:27:08;98004.56;;;13.52;100.00
68226;BME280;55045;49.410;11.030;2023-04-29T13:30:12;98003.91;;;13.63;100.00
68226;BME280;55045;49.410;11.030;2023-04-29T13:33:15;98012.09;;;13.71;100.00
68226;BME280;55045;49.410;11.030;2023-04-29T13:36:20;98003.72;;;13.37;100.00
68226;BME280;55045;49.410;11.030;2023-04-29T13:39:24;98001.00;;;13.67;100.00
68226;BME280;55045;49.410;11.030;2023-04-29T13:42:29;98006.34;;;13.51;100.00
68226;BME280;55045;49.410;11.030;2023-04-29T13:45:33;98005.59;;;13.49;100.00
68226;BME280;55045;49.410;11.030;2023-04-29T13:48:43;98012.31;;;13.39;100.00
68226;BME280;55045;49.410;11.030;2023-04-29T13:51:50;98011.34;;;13.54;100.00
68226;BME280;55045;49.410;11.030;2023-04-29T13:54:56;98009.44;;;13.85;100.00
68226;BME280;55045;49.410;11.030;2023-04-29T13:58:20;98011.09;;;14.00;100.00
68226;BME280;55045;49.410;11.030;2023-04-29T14:01:26;98016.72;;;13.80;100.00
68226;BME280;55045;49.410;11.030;2023-04-29T14:04:32;98017.22;;;13.99;100.00
68226;BME280;55045;49.410;11.030;2023-04-29T14:07:36;98019.75;;;14.01;100.00
68226;BME280;55045;49.410;11.030;2023-04-29T14:10:39;98010.78;;;14.05;100.00
68226;BME280;55045;49.410;11.030;2023-04-29T14:13:43;98014.44;;;14.02;100.00
68226;BME280;55045;49.410;11.030;2023-04-29T14:16:46;98011.28;;;14.24;100.00
68226;BME280;55045;49.410;11.030;2023-04-29T14:19:50;98006.09;;;13.83;100.00
68226;BME280;55045;49.410;11.030;2023-04-29T14:22:53;98016.69;;;13.94;100.00
68226;BME280;55045;49.410;11.030;2023-04-29T14:25:56;98019.81;;;13.72;100.00
68226;BME280;55045;49.410;11.030;2023-04-29T14:29:21;98017.63;;;13.79;100.00
68226;BME280;55045;49.410;11.030;2023-04-29T14:32:24;98027.72;;;13.71;100.00
68226;BME280;55045;49.410;11.030;2023-04-29T14:35:27;98021.56;;;13.58;100.00
68226;BME280;55045;49.410;11.030;2023-04-29T14:38:31;98028.59;;;13.43;100.00
68226;BME280;55045;49.410;11.030;2023-04-29T14:41:34;98036.66;;;13.38;100.00
68226;BME280;55045;49.410;11.030;2023-04-29T14:44:39;98038.81;;;13.32;100.00
68226;BME280;55045;49.410;11.030;2023-04-29T14:47:42;98043.34;;;13.28;100.00
68226;BME280;55045;49.410;11.030;2023-04-29T14:50:46;98047.59;;;13.15;100.00
68226;BME280;55045;49.410;11.030;2023-04-29T14:53:49;98052.94;;;13.27;100.00
68226;BME280;55045;49.410;11.030;2023-04-29T14:56:52;98047.50;;;13.02;100.00
68226;BME280;55045;49.410;11.030;2023-04-29T14:59:57;98055.66;;;12.96;100.00
68226;BME280;55045;49.410;11.030;2023-04-29T15:03:00;98056.06;;;13.04;100.00
68226;BME280;55045;49.410;11.030;2023-04-29T15:06:06;98058.56;;;13.06;100.00
68226;BME280;55045;49.410;11.030;2023-04-29T15:09:09;98051.13;;;13.00;100.00
68226;BME280;55045;49.410;11.030;2023-04-29T15:12:12;98060.72;;;13.13;100.00
68226;BME280;55045;49.410;11.030;2023-04-29T15:15:19;98065.63;;;13.04;100.00
68226;BME280;55045;49.410;11.030;2023-04-29T15:18:22;98064.44;;;13.09;100.00
68226;BME280;55045;49.410;11.030;2023-04-29T15:21:27;98073.84;;;13.12;100.00
68226;BME280;55045;49.410;11.030;2023-04-29T15:24:31;98076.06;;;13.18;100.00
68226;BME280;55045;49.410;11.030;2023-04-29T15:27:34;98060.03;;;12.95;100.00
68226;BME280;55045;49.410;11.030;2023-04-29T15:34:46;98078.53;;;13.21;100.00
68226;BME280;55045;49.410;11.030;2023-04-29T15:37:49;98079.69;;;13.15;100.00
68226;BME280;55045;49.410;11.030;2023-04-29T15:40:52;98077.19;;;13.14;100.00
68226;BME280;55045;49.410;11.030;2023-04-29T15:44:01;98087.94;;;13.08;100.00
68226;BME280;55045;49.410;11.030;2023-04-29T15:47:04;98080.44;;;13.17;100.00
68226;BME280;55045;49.410;11.030;2023-04-29T15:50:11;98091.69;;;13.18;100.00
68226;BME280;55045;49.410;11.030;2023-04-29T15:53:14;98092.72;;;13.15;100.00
68226;BME280;55045;49.410;11.030;2023-04-29T15:56:17;98101.75;;;13.10;100.00
68226;BME280;55045;49.410;11.030;2023-04-29T15:59:21;98095.38;;;13.00;100.00
68226;BME280;55045;49.410;11.030;2023-04-29T16:02:24;98104.06;;;12.84;100.00
68226;BME280;55045;49.410;11.030;2023-04-29T16:05:29;98102.91;;;12.74;100.00
68226;BME280;55045;49.410;11.030;2023-04-29T16:08:32;98110.38;;;12.80;100.00
68226;BME280;55045;49.410;11.030;2023-04-29T16:11:35;98117.88;;;12.71;100.00
68226;BME280;55045;49.410;11.030;2023-04-29T16:14:39;98118.72;;;12.71;100.00